Time;durP1;ratioP1;P1;durP2;ratioP2;P2;SDS_P1;SDS_P2;PMS_P1;PMS_P2;Temp;Humidity;BMP_temperature;BMP_pressure;BME280_temperature;BME280_humidity;BME280_pressure;Samples;Min_cycle;Max_cycle;Signal;HPM_P1;HPM_P2
2022/01/19 00:01:29;;;;;;;;;;;-0.40;99.90;;;;;;5091724;28;20420;-74
2022/01/19 00:04:02;;;;;;;;;;;-0.50;99.90;;;;;;5072842;28;19948;-74
2022/01/19 00:06:33;;;;;;;;;;;-0.50;99.90;;;;;;5091046;28;20300;-74
2022/01/19 00:09:05;;;;;;;;;;;-0.50;99.90;;;;;;5057312;28;19931;-74
2022/01/19 00:11:37;;;;;;;;;;;-0.50;99.90;;;;;;5055863;28;20886;-74
2022/01/19 00:14:08;;;;;;;;;;;-0.50;99.90;;;;;;5001051;28;20455;-74
2022/01/19 00:16:40;;;;;;;;;;;-0.60;99.90;;;;;;5032199;28;19931;-75
2022/01/19 00:19:07;;;;;;;;;;;-0.60;99.90;;;;;;5015707;28;20023;-72
2022/01/19 00:21:33;;;;;;;;;;;-0.60;99.90;;;;;;5017757;28;19930;-74
2022/01/19 00:24:00;;;;;;;;;;;-0.60;99.90;;;;;;5076810;28;20289;-74
2022/01/19 00:26:32;;;;;;;;;;;-0.70;99.90;;;;;;5029792;28;19928;-73
2022/01/19 00:28:59;;;;;;;;;;;-0.70;99.90;;;;;;5055586;28;19968;-74
2022/01/19 00:31:26;;;;;;;;;;;-0.70;99.90;;;;;;5017260;28;19926;-74
2022/01/19 00:33:53;;;;;;;;;;;-0.70;99.90;;;;;;4978309;28;20315;-74
2022/01/19 00:36:26;;;;;;;;;;;-0.80;99.90;;;;;;4994508;28;19932;-73
2022/01/19 00:38:58;;;;;;;;;;;-0.80;99.90;;;;;;4995232;28;20296;-72
2022/01/19 00:41:30;;;;;;;;;;;-0.90;99.90;;;;;;4979834;28;20024;-74
2022/01/19 00:44:01;;;;;;;;;;;-0.90;99.90;;;;;;4979420;28;19963;-74
2022/01/19 00:46:33;;;;;;;;;;;-0.90;99.90;;;;;;5012695;28;20323;-73
2022/01/19 00:49:01;;;;;;;;;;;-1.00;99.90;;;;;;5012401;28;19925;-73
2022/01/19 00:51:28;;;;;;;;;;;-1.00;99.90;;;;;;4994984;28;19925;-74
2022/01/19 00:53:55;;;;;;;;;;;-1.00;99.90;;;;;;5012229;28;20024;-73
2022/01/19 00:56:27;;;;;;;;;;;-1.10;99.90;;;;;;4995698;28;19961;-74
2022/01/19 00:58:59;;;;;;;;;;;-1.10;99.90;;;;;;4979405;28;19932;-74
2022/01/19 01:01:31;;;;;;;;;;;-1.10;99.90;;;;;;4994756;28;19925;-74
2022/01/19 01:04:03;;;;;;;;;;;-1.20;99.90;;;;;;4994733;28;19929;-74
2022/01/19 01:06:35;;;;;;;;;;;-1.20;99.90;;;;;;4979326;28;19926;-73
2022/01/19 01:09:02;;;;;;;;;;;-1.20;99.90;;;;;;4978487;28;19925;-74
2022/01/19 01:11:32;;;;;;;;;;;-1.20;99.90;;;;;;4978676;28;19932;-73
2022/01/19 01:16:39;;;;;;;;;;;-1.30;99.90;;;;;;4994626;28;20380;-74
2022/01/19 01:19:11;;;;;;;;;;;-1.30;99.90;;;;;;4979001;28;20020;-72
2022/01/19 01:21:42;;;;;;;;;;;-1.30;99.90;;;;;;4994446;28;19930;-74
2022/01/19 01:24:09;;;;;;;;;;;-1.30;99.90;;;;;;4977884;28;19925;-74
2022/01/19 01:26:36;;;;;;;;;;;-1.40;99.90;;;;;;4994214;28;19940;-73
2022/01/19 01:29:02;;;;;;;;;;;-1.40;99.90;;;;;;4978203;28;20020;-74
2022/01/19 01:31:34;;;;;;;;;;;-1.40;99.90;;;;;;5011829;28;20012;-74
2022/01/19 01:34:01;;;;;;;;;;;-1.40;99.90;;;;;;4994087;28;20334;-74
2022/01/19 01:36:35;;;;;;;;;;;-1.50;99.90;;;;;;4994322;28;19934;-73
2022/01/19 01:39:02;;;;;;;;;;;-1.40;99.90;;;;;;4993585;28;19935;-73
2022/01/19 01:41:35;;;;;;;;;;;-1.50;99.90;;;;;;4994352;28;19929;-74
2022/01/19 01:44:12;;;;;;;;;;;-1.40;99.90;;;;;;4992810;28;20336;-74
2022/01/19 01:46:50;;;;;;;;;;;-1.50;99.90;;;;;;4978655;28;19936;-74
2022/01/19 01:49:40;;;;;;;;;;;-1.50;99.90;;;;;;4993884;28;20345;-73
2022/01/19 01:55:10;;;;;;;;;;;-1.50;99.90;;;;;;4993928;28;19949;-74
2022/01/19 01:57:38;;;;;;;;;;;-1.60;99.90;;;;;;4993743;28;20020;-74
2022/01/19 02:00:08;;;;;;;;;;;-1.60;99.90;;;;;;4993564;28;19926;-72
2022/01/19 02:02:45;;;;;;;;;;;-1.60;99.90;;;;;;5011185;28;19936;-73
2022/01/19 02:05:22;;;;;;;;;;;-1.70;99.90;;;;;;4978098;28;19932;-74
2022/01/19 02:10:44;;;;;;;;;;;-1.70;99.90;;;;;;4993408;28;19972;-73
2022/01/19 02:24:13;;;;;;;;;;;-1.80;99.90;;;;;;5018613;28;19925;-74
2022/01/19 02:26:55;;;;;;;;;;;-1.80;99.90;;;;;;4993632;28;20288;-73
2022/01/19 02:51:10;;;;;;;;;;;-1.90;99.90;;;;;;4992538;28;19930;-74
2022/01/19 02:53:44;;;;;;;;;;;-1.90;99.90;;;;;;5009466;28;19934;-74
2022/01/19 02:56:30;;;;;;;;;;;-1.90;99.90;;;;;;4992532;28;19925;-74
2022/01/19 02:59:14;;;;;;;;;;;-1.90;99.90;;;;;;4977210;28;20001;-74
2022/01/19 03:09:46;;;;;;;;;;;-1.70;99.90;;;;;;4992811;28;20456;-74
2022/01/19 03:12:19;;;;;;;;;;;-1.60;99.90;;;;;;4977270;28;19929;-73
2022/01/19 03:14:48;;;;;;;;;;;-1.60;99.90;;;;;;4978120;28;19930;-74
2022/01/19 03:17:19;;;;;;;;;;;-1.60;99.90;;;;;;4977355;28;20299;-74
2022/01/19 03:19:51;;;;;;;;;;;-1.50;99.90;;;;;;4993928;28;19975;-74
2022/01/19 03:22:22;;;;;;;;;;;-1.50;99.90;;;;;;4976524;28;19936;-74
2022/01/19 03:24:51;;;;;;;;;;;-1.40;99.90;;;;;;4976339;28;19979;-74
2022/01/19 03:27:18;;;;;;;;;;;-1.40;99.90;;;;;;4976326;28;19936;-74
2022/01/19 03:29:51;;;;;;;;;;;-1.40;99.90;;;;;;4993760;28;19979;-72
2022/01/19 03:32:24;;;;;;;;;;;-1.30;99.90;;;;;;4976991;28;19932;-74
2022/01/19 03:34:52;;;;;;;;;;;-1.30;99.90;;;;;;5010107;28;20024;-74
2022/01/19 03:37:24;;;;;;;;;;;-1.30;99.90;;;;;;4977089;28;20383;-74
2022/01/19 03:39:56;;;;;;;;;;;-1.30;99.90;;;;;;4977257;28;19929;-74
2022/01/19 03:42:23;;;;;;;;;;;-1.30;99.90;;;;;;4992284;28;20016;-74
2022/01/19 03:44:50;;;;;;;;;;;-1.40;99.90;;;;;;5010077;28;19925;-73
2022/01/19 03:47:18;;;;;;;;;;;-1.40;99.90;;;;;;4975669;28;19932;-73
2022/01/19 03:49:50;;;;;;;;;;;-1.40;99.90;;;;;;4992197;28;19925;-74
2022/01/19 03:52:22;;;;;;;;;;;-1.40;99.90;;;;;;4991962;28;19933;-73
2022/01/19 03:54:55;;;;;;;;;;;-1.40;99.90;;;;;;4976722;28;19976;-74
2022/01/19 03:57:22;;;;;;;;;;;-1.50;99.90;;;;;;4992215;28;19925;-74
2022/01/19 03:59:51;;;;;;;;;;;-1.40;99.90;;;;;;4992359;28;19936;-74
2022/01/19 04:02:19;;;;;;;;;;;-1.50;99.90;;;;;;4976371;28;19953;-74
2022/01/19 04:07:21;;;;;;;;;;;-1.50;99.90;;;;;;5023205;28;19930;-74
2022/01/19 04:09:48;;;;;;;;;;;-1.60;99.90;;;;;;4991984;28;19926;-73
2022/01/19 04:12:40;;;;;;;;;;;-1.60;99.90;;;;;;4991868;28;20032;-74
2022/01/19 04:15:14;;;;;;;;;;;-1.50;99.90;;;;;;4992050;28;19926;-74
2022/01/19 04:17:49;;;;;;;;;;;-1.60;99.90;;;;;;4975753;28;20362;-74
2022/01/19 04:20:16;;;;;;;;;;;-1.60;99.90;;;;;;4975824;28;19926;-74
2022/01/19 04:22:43;;;;;;;;;;;-1.50;99.90;;;;;;4975367;28;19925;-73
2022/01/19 04:25:14;;;;;;;;;;;-1.50;99.90;;;;;;4991905;28;19972;-74
2022/01/19 04:27:47;;;;;;;;;;;-1.50;99.90;;;;;;4976404;28;19940;-73
2022/01/19 04:30:20;;;;;;;;;;;-1.50;99.90;;;;;;4991686;28;20404;-74
2022/01/19 04:35:31;;;;;;;;;;;-1.40;99.90;;;;;;4991915;28;19925;-74
2022/01/19 04:44:12;;;;;;;;;;;-1.30;99.90;;;;;;4991178;28;19932;-74
2022/01/19 04:54:17;;;;;;;;;;;-1.20;99.90;;;;;;4991522;28;19961;-74
2022/01/19 05:08:51;;;;;;;;;;;-1.00;99.90;;;;;;4986858;28;19979;-74
2022/01/19 05:14:05;;;;;;;;;;;-1.00;99.90;;;;;;5048920;28;20416;-74
2022/01/19 05:16:32;;;;;;;;;;;-0.90;99.90;;;;;;4985385;28;20277;-74
2022/01/19 05:18:59;;;;;;;;;;;-0.90;99.90;;;;;;5056053;28;19924;-74
2022/01/19 05:21:33;;;;;;;;;;;-0.90;99.90;;;;;;5075839;28;20014;-74
2022/01/19 05:24:20;;;;;;;;;;;-0.80;99.90;;;;;;5066204;28;20367;-72
2022/01/19 05:27:19;;;;;;;;;;;-0.80;99.90;;;;;;5030103;28;19925;-74
2022/01/19 05:29:46;;;;;;;;;;;-0.80;99.90;;;;;;4954566;28;19926;-74
2022/01/19 05:32:18;;;;;;;;;;;-0.80;99.90;;;;;;4956451;28;20320;-71
2022/01/19 05:34:51;;;;;;;;;;;-0.80;99.90;;;;;;4973521;28;19926;-74
2022/01/19 05:37:42;;;;;;;;;;;-0.80;99.90;;;;;;4979136;28;19926;-74
2022/01/19 05:40:35;;;;;;;;;;;-0.80;99.90;;;;;;4980570;28;19929;-72
2022/01/19 05:43:08;;;;;;;;;;;-0.70;99.90;;;;;;4987222;28;20357;-74
2022/01/19 05:45:37;;;;;;;;;;;-0.80;99.90;;;;;;5045104;28;19972;-73
2022/01/19 05:48:15;;;;;;;;;;;-0.80;99.90;;;;;;4989874;28;20315;-74
2022/01/19 05:50:53;;;;;;;;;;;-0.70;99.90;;;;;;4989266;28;19926;-73
2022/01/19 05:53:28;;;;;;;;;;;-0.80;99.90;;;;;;4974416;28;19987;-74
2022/01/19 05:55:55;;;;;;;;;;;-0.70;99.90;;;;;;4989524;28;20145;-73
2022/01/19 05:58:22;;;;;;;;;;;-0.70;99.90;;;;;;4973523;28;19925;-74
2022/01/19 06:00:57;;;;;;;;;;;-0.70;99.90;;;;;;4981318;28;20013;-73
2022/01/19 06:03:29;;;;;;;;;;;-0.70;99.90;;;;;;4956897;28;20025;-72
2022/01/19 06:06:19;;;;;;;;;;;-0.70;99.90;;;;;;4990713;28;19959;-72
2022/01/19 06:09:10;;;;;;;;;;;-0.70;99.90;;;;;;4958964;28;19932;-72
2022/01/19 06:11:42;;;;;;;;;;;-0.70;99.90;;;;;;4957311;28;20456;-74
2022/01/19 06:14:09;;;;;;;;;;;-0.70;99.90;;;;;;4956301;28;20450;-74
2022/01/19 06:16:36;;;;;;;;;;;-0.70;99.90;;;;;;4956968;28;19965;-74
2022/01/19 06:19:03;;;;;;;;;;;-0.70;99.90;;;;;;4973020;28;19926;-74
2022/01/19 06:21:30;;;;;;;;;;;-0.70;99.90;;;;;;4972054;28;20070;-74
2022/01/19 06:23:57;;;;;;;;;;;-0.70;99.90;;;;;;4956191;28;19932;-74
2022/01/19 06:26:29;;;;;;;;;;;-0.60;99.90;;;;;;4974666;28;19980;-74
2022/01/19 06:29:00;;;;;;;;;;;-0.60;99.90;;;;;;5039230;28;19929;-72
2022/01/19 06:31:27;;;;;;;;;;;-0.60;99.90;;;;;;5058287;28;19933;-74
2022/01/19 06:34:02;;;;;;;;;;;-0.50;99.90;;;;;;4962767;28;19925;-74
2022/01/19 06:37:01;;;;;;;;;;;-0.50;99.90;;;;;;4979825;28;19930;-73
2022/01/19 06:39:42;;;;;;;;;;;-0.40;99.90;;;;;;4967758;28;20406;-74
2022/01/19 06:42:13;;;;;;;;;;;-0.40;99.90;;;;;;4978530;28;19969;-72
2022/01/19 06:44:41;;;;;;;;;;;-0.40;99.90;;;;;;4979104;28;20317;-72
2022/01/19 06:47:14;;;;;;;;;;;-0.30;99.90;;;;;;4983265;28;20249;-73
2022/01/19 06:49:45;;;;;;;;;;;-0.30;99.90;;;;;;4967766;28;20017;-74
2022/01/19 06:52:14;;;;;;;;;;;-0.30;99.90;;;;;;4985416;28;19933;-74
2022/01/19 06:54:41;;;;;;;;;;;-0.20;99.90;;;;;;4999669;28;20029;-74
2022/01/19 06:57:07;;;;;;;;;;;-0.20;99.90;;;;;;5049707;28;19957;-72
2022/01/19 06:59:38;;;;;;;;;;;-0.20;99.90;;;;;;4950338;28;19926;-74
2022/01/19 07:02:19;;;;;;;;;;;-0.20;99.90;;;;;;4976757;28;19926;-74
2022/01/19 07:04:50;;;;;;;;;;;-0.20;99.90;;;;;;5036502;28;19926;-74
2022/01/19 07:07:54;;;;;;;;;;;-0.10;99.90;;;;;;4990042;28;19932;-73
2022/01/19 07:10:31;;;;;;;;;;;-0.10;99.90;;;;;;5016040;28;19936;-74
2022/01/19 07:12:59;;;;;;;;;;;-0.10;99.90;;;;;;4990542;28;19929;-74
2022/01/19 07:15:26;;;;;;;;;;;0.00;99.90;;;;;;4962423;28;20017;-74
2022/01/19 07:17:54;;;;;;;;;;;-0.10;99.90;;;;;;4953454;28;20346;-73
2022/01/19 07:20:26;;;;;;;;;;;0.00;99.90;;;;;;4979673;28;20028;-74
2022/01/19 07:23:01;;;;;;;;;;;0.00;99.90;;;;;;4959501;28;19929;-73
2022/01/19 07:25:29;;;;;;;;;;;0.10;99.90;;;;;;5011203;28;19975;-74
2022/01/19 07:28:00;;;;;;;;;;;0.10;99.90;;;;;;4967981;28;19933;-74
2022/01/19 07:30:33;;;;;;;;;;;0.10;99.90;;;;;;5055594;28;19933;-74
2022/01/19 07:33:17;;;;;;;;;;;0.10;99.90;;;;;;4976935;28;19965;-73
2022/01/19 07:35:45;;;;;;;;;;;0.10;99.90;;;;;;5061919;28;19955;-74
2022/01/19 07:38:12;;;;;;;;;;;0.10;99.90;;;;;;4977247;28;19979;-74
2022/01/19 07:40:44;;;;;;;;;;;0.20;99.90;;;;;;4983916;28;20389;-74
2022/01/19 07:43:10;;;;;;;;;;;0.20;99.90;;;;;;5025054;28;20017;-74
2022/01/19 07:46:06;;;;;;;;;;;0.20;99.90;;;;;;5033407;28;19935;-74
2022/01/19 07:48:53;;;;;;;;;;;0.20;99.90;;;;;;4982808;28;19932;-74
2022/01/19 07:51:57;;;;;;;;;;;0.30;99.90;;;;;;4982664;28;20008;-73
2022/01/19 07:54:42;;;;;;;;;;;0.30;99.90;;;;;;4996950;28;19933;-74
2022/01/19 07:57:28;;;;;;;;;;;0.40;99.90;;;;;;4972649;28;20022;-74
2022/01/19 08:00:21;;;;;;;;;;;0.40;99.90;;;;;;4981198;28;19952;-74
2022/01/19 08:02:49;;;;;;;;;;;0.40;99.90;;;;;;5014491;28;19924;-74
2022/01/19 08:05:36;;;;;;;;;;;0.50;99.90;;;;;;5021046;28;20075;-74
2022/01/19 08:08:07;;;;;;;;;;;0.50;99.90;;;;;;4973611;28;19925;-74
2022/01/19 08:10:34;;;;;;;;;;;0.50;99.90;;;;;;4985539;28;19926;-74
2022/01/19 08:13:06;;;;;;;;;;;0.50;99.90;;;;;;4956521;28;20308;-74
2022/01/19 08:15:33;;;;;;;;;;;0.50;99.90;;;;;;5056082;28;20342;-72
2022/01/19 08:18:06;;;;;;;;;;;0.50;99.90;;;;;;5056104;28;20036;-74
2022/01/19 08:20:42;;;;;;;;;;;0.50;99.90;;;;;;5005142;28;19925;-74
2022/01/19 08:23:10;;;;;;;;;;;0.50;99.90;;;;;;5072722;28;19924;-74
2022/01/19 08:25:55;;;;;;;;;;;0.50;99.90;;;;;;5007610;28;19941;-74
2022/01/19 08:28:27;;;;;;;;;;;0.50;99.90;;;;;;4998773;28;20459;-74
2022/01/19 08:30:59;;;;;;;;;;;0.50;99.90;;;;;;5054654;28;19973;-74
2022/01/19 08:33:49;;;;;;;;;;;0.50;99.90;;;;;;4983003;28;20007;-74
2022/01/19 08:36:31;;;;;;;;;;;0.60;99.90;;;;;;4973525;28;19971;-73
2022/01/19 08:39:07;;;;;;;;;;;0.60;99.90;;;;;;4937168;28;19926;-74
2022/01/19 08:41:41;;;;;;;;;;;0.60;99.90;;;;;;4961987;28;19956;-73
2022/01/19 08:44:13;;;;;;;;;;;0.60;99.90;;;;;;4958180;28;19934;-73
2022/01/19 08:46:43;;;;;;;;;;;0.60;99.90;;;;;;4949552;28;19926;-74
2022/01/19 08:49:41;;;;;;;;;;;0.70;99.90;;;;;;4985906;28;19991;-73
2022/01/19 08:52:16;;;;;;;;;;;0.70;99.90;;;;;;5042456;28;19936;-74
2022/01/19 08:54:48;;;;;;;;;;;0.80;99.90;;;;;;4984880;28;19925;-74
2022/01/19 08:57:17;;;;;;;;;;;0.80;99.90;;;;;;5001462;28;19930;-73
2022/01/19 08:59:43;;;;;;;;;;;0.90;99.90;;;;;;4989921;28;20024;-74
2022/01/19 09:02:10;;;;;;;;;;;0.90;99.90;;;;;;5014686;28;19965;-74
2022/01/19 09:04:42;;;;;;;;;;;1.00;99.90;;;;;;4981905;28;20503;-73
2022/01/19 09:07:09;;;;;;;;;;;1.00;99.90;;;;;;4963135;28;19975;-74
2022/01/19 09:09:35;;;;;;;;;;;1.00;99.90;;;;;;4967656;28;20004;-74
2022/01/19 09:12:02;;;;;;;;;;;1.00;99.90;;;;;;4973669;28;19926;-73
2022/01/19 09:14:34;;;;;;;;;;;1.00;99.90;;;;;;4971583;28;20013;-73
2022/01/19 09:17:08;;;;;;;;;;;1.10;99.90;;;;;;4991898;28;20033;-73
2022/01/19 09:19:37;;;;;;;;;;;1.10;99.90;;;;;;4966940;28;20017;-73
2022/01/19 09:22:06;;;;;;;;;;;1.10;99.90;;;;;;4986098;28;20020;-73
2022/01/19 09:24:39;;;;;;;;;;;1.20;99.90;;;;;;5002834;28;20412;-73
2022/01/19 09:27:08;;;;;;;;;;;1.30;99.90;;;;;;4974449;28;19957;-73
2022/01/19 09:29:38;;;;;;;;;;;1.30;99.90;;;;;;4978615;28;19965;-72
2022/01/19 09:32:08;;;;;;;;;;;1.30;99.90;;;;;;4955488;28;20450;-73
2022/01/19 09:34:34;;;;;;;;;;;1.40;99.90;;;;;;4985656;28;19961;-73
2022/01/19 09:37:01;;;;;;;;;;;1.40;99.90;;;;;;4994841;28;20312;-72
2022/01/19 09:39:28;;;;;;;;;;;1.50;99.90;;;;;;5017922;28;19926;-72
2022/01/19 09:41:55;;;;;;;;;;;1.50;99.90;;;;;;5062607;28;20011;-72
2022/01/19 09:44:23;;;;;;;;;;;1.60;99.90;;;;;;5012674;28;19948;-72
2022/01/19 09:46:51;;;;;;;;;;;1.60;99.90;;;;;;4960081;28;20020;-73
2022/01/19 09:49:23;;;;;;;;;;;1.70;99.90;;;;;;4993501;28;19926;-74
2022/01/19 09:51:55;;;;;;;;;;;1.70;99.90;;;;;;5010696;28;20028;-73
2022/01/19 09:54:27;;;;;;;;;;;1.70;99.90;;;;;;4996949;28;19966;-74
2022/01/19 09:56:55;;;;;;;;;;;1.80;99.90;;;;;;5035384;28;19957;-74
2022/01/19 09:59:26;;;;;;;;;;;1.90;99.90;;;;;;4997772;28;19928;-74
2022/01/19 10:02:02;;;;;;;;;;;1.90;99.90;;;;;;5015253;28;20441;-74
2022/01/19 10:04:30;;;;;;;;;;;2.00;99.90;;;;;;5010539;28;19947;-74
2022/01/19 10:07:11;;;;;;;;;;;2.00;99.90;;;;;;5002893;28;20426;-72
2022/01/19 10:09:47;;;;;;;;;;;2.10;99.90;;;;;;4991401;28;19932;-74
2022/01/19 10:18:15;;;;;;;;;;;2.10;99.90;;;;;;4998257;28;20020;-73
2022/01/19 10:20:42;;;;;;;;;;;2.20;99.90;;;;;;5017307;28;19975;-73
2022/01/19 10:23:36;;;;;;;;;;;2.30;99.90;;;;;;5050120;28;20013;-73
2022/01/19 10:26:07;;;;;;;;;;;2.40;99.90;;;;;;5032366;28;20394;-74
2022/01/19 10:28:55;;;;;;;;;;;2.40;99.90;;;;;;5053234;28;19925;-74
2022/01/19 10:31:22;;;;;;;;;;;2.40;99.90;;;;;;5058734;28;20375;-73
2022/01/19 10:34:09;;;;;;;;;;;2.40;99.90;;;;;;5075681;28;19978;-73
2022/01/19 10:36:41;;;;;;;;;;;2.50;99.90;;;;;;5008210;28;20017;-73
2022/01/19 10:39:07;;;;;;;;;;;2.50;99.90;;;;;;4978088;28;20344;-73
2022/01/19 10:41:58;;;;;;;;;;;2.50;99.90;;;;;;5025477;28;19932;-73
2022/01/19 10:44:32;;;;;;;;;;;2.60;99.90;;;;;;5035937;28;19974;-74
2022/01/19 10:47:04;;;;;;;;;;;2.60;99.90;;;;;;4973212;28;20295;-73
2022/01/19 10:49:50;;;;;;;;;;;2.70;99.90;;;;;;4999129;28;19926;-72
2022/01/19 10:52:26;;;;;;;;;;;2.70;99.90;;;;;;4982148;28;19973;-73
2022/01/19 10:54:59;;;;;;;;;;;2.70;99.90;;;;;;5008868;28;20480;-74
2022/01/19 10:57:31;;;;;;;;;;;2.70;99.90;;;;;;4969889;28;20353;-73
2022/01/19 11:00:13;;;;;;;;;;;2.80;99.90;;;;;;4992815;28;20351;-74
2022/01/19 11:02:41;;;;;;;;;;;2.90;99.90;;;;;;5060456;28;19924;-73
2022/01/19 11:05:07;;;;;;;;;;;3.00;99.90;;;;;;5026359;28;19985;-74
2022/01/19 11:07:34;;;;;;;;;;;3.10;99.90;;;;;;5043519;28;19925;-74
2022/01/19 11:10:13;;;;;;;;;;;3.20;99.90;;;;;;4986171;28;19933;-74
2022/01/19 11:12:47;;;;;;;;;;;3.30;99.90;;;;;;4997267;28;19926;-73
2022/01/19 11:15:19;;;;;;;;;;;3.30;99.90;;;;;;4971293;28;19957;-73
2022/01/19 11:17:51;;;;;;;;;;;3.40;99.90;;;;;;4973157;28;19925;-73
2022/01/19 11:20:24;;;;;;;;;;;3.40;99.90;;;;;;4973842;28;20005;-73
2022/01/19 11:22:55;;;;;;;;;;;3.40;99.90;;;;;;4979292;28;20012;-73
2022/01/19 11:25:45;;;;;;;;;;;3.50;99.90;;;;;;4964637;28;19929;-74
2022/01/19 11:28:25;;;;;;;;;;;3.50;99.90;;;;;;5009598;28;20373;-73
2022/01/19 11:30:57;;;;;;;;;;;3.60;99.90;;;;;;5017031;28;19941;-73
2022/01/19 11:33:28;;;;;;;;;;;3.60;99.90;;;;;;5050408;28;20033;-73
2022/01/19 11:36:01;;;;;;;;;;;3.70;99.90;;;;;;4990811;28;19949;-73
2022/01/19 11:38:35;;;;;;;;;;;3.80;99.90;;;;;;4989861;28;19961;-73
2022/01/19 11:41:22;;;;;;;;;;;3.90;99.90;;;;;;5059124;28;20007;-73
2022/01/19 11:43:55;;;;;;;;;;;3.90;99.90;;;;;;4987386;28;20012;-73
2022/01/19 11:46:43;;;;;;;;;;;4.00;99.90;;;;;;4974520;28;20141;-73
2022/01/19 11:49:16;;;;;;;;;;;4.00;99.90;;;;;;5006455;28;19930;-74
2022/01/19 11:51:47;;;;;;;;;;;4.10;99.90;;;;;;5009247;28;20363;-73
2022/01/19 11:54:33;;;;;;;;;;;4.20;99.90;;;;;;5008320;28;19930;-73
2022/01/19 11:57:07;;;;;;;;;;;4.30;99.90;;;;;;4992445;28;19925;-73
2022/01/19 11:59:48;;;;;;;;;;;4.40;99.90;;;;;;4980284;28;19932;-74
2022/01/19 12:02:21;;;;;;;;;;;4.40;99.90;;;;;;4989970;28;20021;-73
2022/01/19 12:04:50;;;;;;;;;;;4.50;99.90;;;;;;4977241;28;19929;-74
2022/01/19 12:07:37;;;;;;;;;;;4.60;99.90;;;;;;5052106;28;20554;-74
2022/01/19 12:10:14;;;;;;;;;;;4.70;99.90;;;;;;4997087;28;19933;-73
2022/01/19 12:13:09;;;;;;;;;;;4.70;99.90;;;;;;4971303;28;19965;-74
2022/01/19 12:15:57;;;;;;;;;;;4.80;99.90;;;;;;4991170;28;19949;-73
2022/01/19 12:18:40;;;;;;;;;;;4.90;99.90;;;;;;4969813;28;20045;-74
2022/01/19 12:21:09;;;;;;;;;;;5.00;99.90;;;;;;4984656;28;19940;-74
2022/01/19 12:23:36;;;;;;;;;;;5.10;99.90;;;;;;4966287;28;20028;-74
2022/01/19 12:26:04;;;;;;;;;;;5.20;99.90;;;;;;4967614;28;20396;-74
2022/01/19 12:28:57;;;;;;;;;;;5.30;99.90;;;;;;4959812;28;19932;-74
2022/01/19 12:31:23;;;;;;;;;;;5.30;99.90;;;;;;4984926;28;19964;-74
2022/01/19 12:34:08;;;;;;;;;;;5.40;99.90;;;;;;5071285;28;20299;-74
2022/01/19 12:36:50;;;;;;;;;;;5.50;99.90;;;;;;4991514;28;19928;-74
2022/01/19 12:39:26;;;;;;;;;;;5.60;99.90;;;;;;4995738;28;20519;-74
2022/01/19 12:41:58;;;;;;;;;;;5.60;99.90;;;;;;5017665;28;20014;-73
2022/01/19 12:44:42;;;;;;;;;;;5.70;99.90;;;;;;5056648;28;20013;-74
2022/01/19 12:47:29;;;;;;;;;;;5.90;99.90;;;;;;5004627;28;20356;-74
2022/01/19 12:50:18;;;;;;;;;;;5.90;99.90;;;;;;5024703;28;19993;-73
2022/01/19 12:52:54;;;;;;;;;;;6.00;99.90;;;;;;5040696;28;20608;-74
2022/01/19 12:55:22;;;;;;;;;;;6.10;99.90;;;;;;4969790;28;19936;-73
2022/01/19 12:57:54;;;;;;;;;;;6.20;99.90;;;;;;4974445;28;20103;-74
2022/01/19 13:00:28;;;;;;;;;;;6.20;99.90;;;;;;4998057;28;20459;-74
2022/01/19 13:03:11;;;;;;;;;;;6.30;99.90;;;;;;5068102;28;19935;-74
2022/01/19 13:05:44;;;;;;;;;;;6.30;99.90;;;;;;5037261;28;20325;-74
2022/01/19 13:08:24;;;;;;;;;;;6.40;99.90;;;;;;4970859;28;19925;-73
2022/01/19 13:11:04;;;;;;;;;;;6.50;99.90;;;;;;4988374;28;20468;-74
2022/01/19 13:13:44;;;;;;;;;;;6.50;99.90;;;;;;4970671;28;19972;-74
2022/01/19 13:16:24;;;;;;;;;;;6.50;99.90;;;;;;4992959;28;20020;-74
2022/01/19 13:18:51;;;;;;;;;;;6.50;99.90;;;;;;4975769;28;19976;-74
2022/01/19 13:21:19;;;;;;;;;;;6.50;99.90;;;;;;4970974;28;19926;-74
2022/01/19 13:23:55;;;;;;;;;;;6.50;99.90;;;;;;4996815;28;20389;-74
2022/01/19 13:26:47;;;;;;;;;;;6.60;99.90;;;;;;4952449;28;20017;-73
2022/01/19 13:29:24;;;;;;;;;;;6.60;99.90;;;;;;4970157;28;19931;-74
2022/01/19 13:32:03;;;;;;;;;;;6.70;99.90;;;;;;4980659;28;20012;-74
2022/01/19 13:34:48;;;;;;;;;;;6.70;99.90;;;;;;4950921;28;20296;-74
2022/01/19 13:37:21;;;;;;;;;;;6.70;99.90;;;;;;4984101;28;19932;-74
2022/01/19 13:39:54;;;;;;;;;;;6.70;99.90;;;;;;5010133;28;20021;-74
2022/01/19 13:42:41;;;;;;;;;;;6.70;99.90;;;;;;5010597;28;19976;-74
2022/01/19 13:45:10;;;;;;;;;;;6.70;99.90;;;;;;5008185;28;19932;-74
2022/01/19 13:47:54;;;;;;;;;;;6.80;99.90;;;;;;4992787;28;20030;-73
2022/01/19 13:50:25;;;;;;;;;;;6.70;99.90;;;;;;4993340;28;20036;-73
2022/01/19 13:52:52;;;;;;;;;;;6.70;99.90;;;;;;4973282;28;19926;-74
2022/01/19 13:55:24;;;;;;;;;;;6.70;99.90;;;;;;4994099;28;19925;-76
2022/01/19 13:58:09;;;;;;;;;;;6.70;99.90;;;;;;4973440;28;20029;-73
2022/01/19 14:00:37;;;;;;;;;;;6.80;99.90;;;;;;4973236;28;19965;-73
2022/01/19 14:03:08;;;;;;;;;;;6.70;99.90;;;;;;4955111;28;19933;-73
2022/01/19 14:05:39;;;;;;;;;;;6.70;99.90;;;;;;4986577;28;19926;-74
2022/01/19 14:08:11;;;;;;;;;;;6.60;99.90;;;;;;5011146;28;19941;-73
2022/01/19 14:10:45;;;;;;;;;;;6.60;99.90;;;;;;5063778;28;20031;-74
2022/01/19 14:13:20;;;;;;;;;;;6.50;99.90;;;;;;5042771;28;20376;-73
2022/01/19 14:15:48;;;;;;;;;;;6.50;99.90;;;;;;5013445;28;19930;-74
2022/01/19 14:18:19;;;;;;;;;;;6.50;99.90;;;;;;5003361;28;20451;-73
2022/01/19 14:21:04;;;;;;;;;;;6.50;99.90;;;;;;4999485;28;20037;-73
2022/01/19 14:23:35;;;;;;;;;;;6.50;99.90;;;;;;4985697;28;19978;-74
2022/01/19 14:26:09;;;;;;;;;;;6.50;99.90;;;;;;4992868;28;19925;-74
2022/01/19 14:28:41;;;;;;;;;;;6.50;99.90;;;;;;4993569;28;20300;-72
2022/01/19 14:31:12;;;;;;;;;;;6.50;99.90;;;;;;4992289;28;19961;-74
2022/01/19 14:33:48;;;;;;;;;;;6.40;99.90;;;;;;5009680;28;20603;-73
2022/01/19 14:36:21;;;;;;;;;;;6.40;99.90;;;;;;5010596;28;20032;-73
2022/01/19 14:38:58;;;;;;;;;;;6.30;99.90;;;;;;5000831;28;19999;-73
2022/01/19 14:41:33;;;;;;;;;;;6.30;99.90;;;;;;5035191;28;19928;-72
2022/01/19 14:44:20;;;;;;;;;;;6.20;99.90;;;;;;5013684;28;20020;-73
2022/01/19 14:47:05;;;;;;;;;;;6.10;99.90;;;;;;4989932;28;19929;-73
2022/01/19 14:49:37;;;;;;;;;;;6.10;99.90;;;;;;4993909;28;19976;-72
2022/01/19 14:52:11;;;;;;;;;;;6.00;99.90;;;;;;4988696;28;19965;-73
2022/01/19 14:54:39;;;;;;;;;;;5.90;99.90;;;;;;4998140;28;20307;-73
2022/01/19 14:57:06;;;;;;;;;;;5.90;99.90;;;;;;4990551;28;20362;-73
2022/01/19 14:59:38;;;;;;;;;;;5.90;99.90;;;;;;4972953;28;19930;-72
2022/01/19 15:02:10;;;;;;;;;;;5.80;99.90;;;;;;4980387;28;19929;-72
2022/01/19 15:04:44;;;;;;;;;;;5.70;99.90;;;;;;4999621;28;19926;-72
2022/01/19 15:07:17;;;;;;;;;;;5.60;99.90;;;;;;4976075;28;20078;-73
2022/01/19 15:09:49;;;;;;;;;;;5.50;99.90;;;;;;5008098;28;20047;-73
2022/01/19 15:12:20;;;;;;;;;;;5.50;99.90;;;;;;4968172;28;19940;-73
2022/01/19 15:14:52;;;;;;;;;;;5.40;99.90;;;;;;4983921;28;20025;-72
2022/01/19 15:17:19;;;;;;;;;;;5.30;99.90;;;;;;4987890;28;20420;-74
2022/01/19 15:19:50;;;;;;;;;;;5.20;99.90;;;;;;5069317;28;20018;-71
2022/01/19 15:22:23;;;;;;;;;;;5.10;99.90;;;;;;5091146;28;19932;-72
2022/01/19 15:24:49;;;;;;;;;;;5.10;99.90;;;;;;5091610;28;19928;-73
2022/01/19 15:27:21;;;;;;;;;;;5.10;99.90;;;;;;5091682;28;19924;-72
2022/01/19 15:29:53;;;;;;;;;;;5.00;99.90;;;;;;5091104;28;19930;-73
2022/01/19 15:32:25;;;;;;;;;;;4.90;99.90;;;;;;5009398;28;20367;-74
2022/01/19 15:34:52;;;;;;;;;;;4.80;99.90;;;;;;4995401;28;19930;-72
2022/01/19 15:37:23;;;;;;;;;;;4.80;99.90;;;;;;4976115;28;20307;-72
2022/01/19 15:39:56;;;;;;;;;;;4.70;99.90;;;;;;5008668;28;19979;-72
2022/01/19 15:42:22;;;;;;;;;;;4.60;99.90;;;;;;4991332;28;19972;-73
2022/01/19 15:44:54;;;;;;;;;;;4.50;99.90;;;;;;4976133;28;20522;-72
2022/01/19 15:47:26;;;;;;;;;;;4.40;99.90;;;;;;4969770;28;19940;-72
2022/01/19 15:49:57;;;;;;;;;;;4.40;99.90;;;;;;4968706;28;19966;-73
2022/01/19 15:52:29;;;;;;;;;;;4.30;99.90;;;;;;4969315;28;19933;-73
2022/01/19 15:55:01;;;;;;;;;;;4.20;99.90;;;;;;4953462;28;19965;-72
2022/01/19 15:57:33;;;;;;;;;;;4.30;99.90;;;;;;4952007;28;19926;-73
2022/01/19 16:00:06;;;;;;;;;;;4.30;99.90;;;;;;4968198;28;19930;-72
2022/01/19 16:02:38;;;;;;;;;;;4.20;99.90;;;;;;4966847;28;19980;-72
2022/01/19 16:05:09;;;;;;;;;;;4.20;99.90;;;;;;4969322;28;19930;-72
2022/01/19 16:07:41;;;;;;;;;;;4.30;99.90;;;;;;4953583;28;19933;-72
2022/01/19 16:10:13;;;;;;;;;;;4.30;99.90;;;;;;5000309;28;19925;-72
2022/01/19 16:12:44;;;;;;;;;;;4.30;99.90;;;;;;4991510;28;20026;-74
2022/01/19 16:15:13;;;;;;;;;;;4.30;99.90;;;;;;4974621;28;20459;-72
2022/01/19 16:17:45;;;;;;;;;;;4.20;99.90;;;;;;5016647;28;20402;-72
2022/01/19 16:20:18;;;;;;;;;;;4.20;99.90;;;;;;5038260;28;19999;-73
2022/01/19 16:28:26;;;;;;;;;;;4.20;99.90;;;;;;5057875;28;20015;-73
2022/01/19 16:30:53;;;;;;;;;;;4.20;99.90;;;;;;4997941;28;19930;-72
2022/01/19 16:33:25;;;;;;;;;;;4.20;99.90;;;;;;4972565;28;19925;-72
2022/01/19 16:35:52;;;;;;;;;;;4.10;99.90;;;;;;5006336;28;20423;-72
2022/01/19 16:38:19;;;;;;;;;;;4.10;99.90;;;;;;5019329;28;19928;-73